sensor_id;sensor_type;location;lat;lon;timestamp;pressure;altitude;pressure_sealevel;temperature;humidity
33161;BME280;19522;45.656;11.302;2023-10-08T00:01:35;99095.06;;;15.96;95.01
33161;BME280;19522;45.656;11.302;2023-10-08T00:04:00;99101.38;;;16.17;94.82
33161;BME280;19522;45.656;11.302;2023-10-08T00:06:29;99105.19;;;16.23;93.93
33161;BME280;19522;45.656;11.302;2023-10-08T00:08:55;99010.06;;;15.76;93.20
33161;BME280;19522;45.656;11.302;2023-10-08T00:11:26;99097.41;;;16.33;92.91
33161;BME280;19522;45.656;11.302;2023-10-08T00:13:51;99099.09;;;16.20;93.11
33161;BME280;19522;45.656;11.302;2023-10-08T00:16:21;99099.53;;;16.24;93.07
33161;BME280;19522;45.656;11.302;2023-10-08T00:18:47;99042.34;;;15.87;92.89
33161;BME280;19522;45.656;11.302;2023-10-08T00:21:20;99091.31;;;16.24;92.89
33161;BME280;19522;45.656;11.302;2023-10-08T00:23:58;99031.84;;;15.98;92.20
33161;BME280;19522;45.656;11.302;2023-10-08T00:26:23;99085.59;;;16.46;91.39
33161;BME280;19522;45.656;11.302;2023-10-08T00:29:05;99052.28;;;16.15;92.01
33161;BME280;19522;45.656;11.302;2023-10-08T00:31:47;99076.97;;;16.29;91.65
33161;BME280;19522;45.656;11.302;2023-10-08T00:34:15;99049.75;;;16.07;91.89
33161;BME280;19522;45.656;11.302;2023-10-08T00:36:44;99057.13;;;16.20;91.23
33161;BME280;19522;45.656;11.302;2023-10-08T00:39:10;99076.97;;;16.29;91.26
33161;BME280;19522;45.656;11.302;2023-10-08T00:41:44;99053.34;;;16.21;91.58
33161;BME280;19522;45.656;11.302;2023-10-08T00:44:13;99034.78;;;16.10;91.22
33161;BME280;19522;45.656;11.302;2023-10-08T00:46:42;99015.00;;;16.01;91.36
33161;BME280;19522;45.656;11.302;2023-10-08T00:49:14;99047.44;;;16.17;91.36
33161;BME280;19522;45.656;11.302;2023-10-08T00:52:00;99041.13;;;16.24;90.75
33161;BME280;19522;45.656;11.302;2023-10-08T00:54:52;99042.78;;;16.11;91.65
33161;BME280;19522;45.656;11.302;2023-10-08T00:57:34;99053.75;;;16.18;91.24
33161;BME280;19522;45.656;11.302;2023-10-08T01:00:08;99045.56;;;16.04;91.87
33161;BME280;19522;45.656;11.302;2023-10-08T01:02:41;98980.38;;;15.80;90.87
33161;BME280;19522;45.656;11.302;2023-10-08T01:05:15;99032.28;;;16.15;90.65
33161;BME280;19522;45.656;11.302;2023-10-08T01:07:46;99032.28;;;16.15;90.77
33161;BME280;19522;45.656;11.302;2023-10-08T01:10:16;99036.25;;;16.19;90.59
33161;BME280;19522;45.656;11.302;2023-10-08T01:12:45;98931.09;;;15.53;90.61
33161;BME280;19522;45.656;11.302;2023-10-08T01:15:27;99025.09;;;16.00;91.36
33161;BME280;19522;45.656;11.302;2023-10-08T01:17:56;99027.19;;;15.85;92.33
33161;BME280;19522;45.656;11.302;2023-10-08T01:20:31;99025.28;;;15.85;92.73
33161;BME280;19522;45.656;11.302;2023-10-08T01:23:07;98947.03;;;15.36;93.16
33161;BME280;19522;45.656;11.302;2023-10-08T01:25:46;99000.81;;;15.70;93.75
33161;BME280;19522;45.656;11.302;2023-10-08T01:28:23;99015.34;;;15.71;94.01
33161;BME280;19522;45.656;11.302;2023-10-08T01:30:57;99012.78;;;15.56;94.43
33161;BME280;19522;45.656;11.302;2023-10-08T01:33:26;99017.66;;;15.61;93.76
33161;BME280;19522;45.656;11.302;2023-10-08T01:35:54;98895.19;;;14.94;92.88
33161;BME280;19522;45.656;11.302;2023-10-08T01:38:19;98953.34;;;15.23;92.55
33161;BME280;19522;45.656;11.302;2023-10-08T01:40:49;99013.00;;;15.61;92.48
33161;BME280;19522;45.656;11.302;2023-10-08T01:43:18;99015.94;;;15.60;92.89
33161;BME280;19522;45.656;11.302;2023-10-08T01:45:47;98948.69;;;15.10;93.03
33161;BME280;19522;45.656;11.302;2023-10-08T01:48:17;99005.19;;;15.45;93.14
33161;BME280;19522;45.656;11.302;2023-10-08T01:50:54;98940.06;;;15.20;91.93
33161;BME280;19522;45.656;11.302;2023-10-08T01:53:20;99001.00;;;15.62;91.50
33161;BME280;19522;45.656;11.302;2023-10-08T01:55:45;98958.00;;;15.36;91.71
33161;BME280;19522;45.656;11.302;2023-10-08T01:58:17;98982.47;;;15.57;92.09
33161;BME280;19522;45.656;11.302;2023-10-08T02:00:46;98992.16;;;15.67;91.24
33161;BME280;19522;45.656;11.302;2023-10-08T02:03:13;98958.00;;;15.42;91.29
33161;BME280;19522;45.656;11.302;2023-10-08T02:05:42;98979.94;;;15.49;91.70
33161;BME280;19522;45.656;11.302;2023-10-08T02:08:09;98976.13;;;15.43;91.08
33161;BME280;19522;45.656;11.302;2023-10-08T02:10:36;98965.59;;;15.34;91.39
33161;BME280;19522;45.656;11.302;2023-10-08T02:13:01;98984.34;;;15.50;91.11
33161;BME280;19522;45.656;11.302;2023-10-08T02:15:27;98971.88;;;15.27;91.67
33161;BME280;19522;45.656;11.302;2023-10-08T02:17:53;98971.19;;;15.12;92.60
33161;BME280;19522;45.656;11.302;2023-10-08T02:20:20;98972.06;;;15.19;92.74
33161;BME280;19522;45.656;11.302;2023-10-08T02:22:47;98968.47;;;15.12;93.15
33161;BME280;19522;45.656;11.302;2023-10-08T02:25:15;98927.09;;;14.80;93.00
33161;BME280;19522;45.656;11.302;2023-10-08T02:27:40;98973.50;;;15.15;92.95
33161;BME280;19522;45.656;11.302;2023-10-08T02:30:07;98949.66;;;14.89;93.28
33161;BME280;19522;45.656;11.302;2023-10-08T02:32:38;98922.28;;;14.82;92.90
33161;BME280;19522;45.656;11.302;2023-10-08T02:35:08;98936.78;;;14.76;93.50
33161;BME280;19522;45.656;11.302;2023-10-08T02:37:37;98936.78;;;14.83;93.63
33161;BME280;19522;45.656;11.302;2023-10-08T02:40:08;98862.34;;;14.39;93.64
33161;BME280;19522;45.656;11.302;2023-10-08T02:43:06;98964.44;;;15.08;93.28
33161;BME280;19522;45.656;11.302;2023-10-08T02:45:37;98906.25;;;14.72;93.04
33161;BME280;19522;45.656;11.302;2023-10-08T02:48:09;98956.44;;;15.06;93.65
33161;BME280;19522;45.656;11.302;2023-10-08T02:50:44;98891.91;;;14.63;93.62
33161;BME280;19522;45.656;11.302;2023-10-08T02:53:13;98960.44;;;15.04;93.95
33161;BME280;19522;45.656;11.302;2023-10-08T02:55:45;98849.94;;;14.36;94.15
33161;BME280;19522;45.656;11.302;2023-10-08T02:58:15;98947.19;;;15.01;93.75
33161;BME280;19522;45.656;11.302;2023-10-08T03:00:42;98939.97;;;14.93;93.56
33161;BME280;19522;45.656;11.302;2023-10-08T03:03:07;98911.56;;;14.87;92.81
33161;BME280;19522;45.656;11.302;2023-10-08T03:05:51;98943.00;;;15.11;92.31
33161;BME280;19522;45.656;11.302;2023-10-08T03:08:18;98899.81;;;14.93;92.03
33161;BME280;19522;45.656;11.302;2023-10-08T03:10:51;98845.81;;;14.54;92.67
33161;BME280;19522;45.656;11.302;2023-10-08T03:13:28;98931.81;;;15.00;92.85
33161;BME280;19522;45.656;11.302;2023-10-08T03:15:54;98889.06;;;14.78;92.94
33161;BME280;19522;45.656;11.302;2023-10-08T03:18:23;98910.56;;;14.95;92.54
33161;BME280;19522;45.656;11.302;2023-10-08T03:20:48;98891.19;;;14.90;91.68
33161;BME280;19522;45.656;11.302;2023-10-08T03:23:16;98943.00;;;15.18;91.55
33161;BME280;19522;45.656;11.302;2023-10-08T03:25:55;98870.09;;;14.70;91.41
33161;BME280;19522;45.656;11.302;2023-10-08T03:28:36;98942.38;;;15.09;91.23
33161;BME280;19522;45.656;11.302;2023-10-08T03:31:03;98940.25;;;15.11;91.11
33161;BME280;19522;45.656;11.302;2023-10-08T03:33:34;98921.50;;;15.02;90.54
33161;BME280;19522;45.656;11.302;2023-10-08T03:36:03;98909.91;;;14.93;90.20
33161;BME280;19522;45.656;11.302;2023-10-08T03:38:55;98944.47;;;15.07;90.18
33161;BME280;19522;45.656;11.302;2023-10-08T03:41:25;98941.09;;;15.05;90.16
33161;BME280;19522;45.656;11.302;2023-10-08T03:43:55;98912.81;;;14.85;90.04
33161;BME280;19522;45.656;11.302;2023-10-08T03:46:30;98939.19;;;14.99;90.80
33161;BME280;19522;45.656;11.302;2023-10-08T03:48:57;98861.38;;;14.53;90.49
33161;BME280;19522;45.656;11.302;2023-10-08T03:51:23;98936.31;;;14.72;91.45
33161;BME280;19522;45.656;11.302;2023-10-08T03:53:52;98942.69;;;14.79;91.35
33161;BME280;19522;45.656;11.302;2023-10-08T03:56:35;98941.69;;;14.94;90.54
33161;BME280;19522;45.656;11.302;2023-10-08T03:59:05;98914.91;;;14.76;90.25
33161;BME280;19522;45.656;11.302;2023-10-08T04:01:56;98935.59;;;14.99;89.54
33161;BME280;19522;45.656;11.302;2023-10-08T04:04:25;98826.16;;;14.23;89.54
33161;BME280;19522;45.656;11.302;2023-10-08T04:07:24;98906.25;;;14.72;89.54
33161;BME280;19522;45.656;11.302;2023-10-08T04:09:51;98941.25;;;14.90;89.73
33161;BME280;19522;45.656;11.302;2023-10-08T04:12:30;98935.13;;;14.88;89.56
33161;BME280;19522;45.656;11.302;2023-10-08T04:15:01;98876.13;;;14.59;89.51
33161;BME280;19522;45.656;11.302;2023-10-08T04:17:26;98806.34;;;14.14;88.73
33161;BME280;19522;45.656;11.302;2023-10-08T04:19:52;98937.28;;;15.00;88.59
33161;BME280;19522;45.656;11.302;2023-10-08T04:22:17;98916.59;;;14.84;88.79
33161;BME280;19522;45.656;11.302;2023-10-08T04:24:47;98939.63;;;15.03;88.06
33161;BME280;19522;45.656;11.302;2023-10-08T04:27:12;98832.28;;;14.32;87.88
33161;BME280;19522;45.656;11.302;2023-10-08T04:29:40;98936.03;;;14.95;88.00
33161;BME280;19522;45.656;11.302;2023-10-08T04:32:10;98833.38;;;14.38;87.77
33161;BME280;19522;45.656;11.302;2023-10-08T04:34:47;98937.69;;;14.90;88.45
33161;BME280;19522;45.656;11.302;2023-10-08T04:37:15;98933.88;;;14.84;88.71
33161;BME280;19522;45.656;11.302;2023-10-08T04:39:45;98894.63;;;14.63;88.53
33161;BME280;19522;45.656;11.302;2023-10-08T04:42:12;98922.69;;;14.79;88.23
33161;BME280;19522;45.656;11.302;2023-10-08T04:44:39;98942.06;;;14.91;87.96
33161;BME280;19522;45.656;11.302;2023-10-08T04:47:09;98920.56;;;14.74;88.10
33161;BME280;19522;45.656;11.302;2023-10-08T04:49:35;98937.81;;;14.75;88.29
33161;BME280;19522;45.656;11.302;2023-10-08T04:52:07;98887.41;;;14.49;88.07
33161;BME280;19522;45.656;11.302;2023-10-08T04:54:42;98932.19;;;14.83;87.89
33161;BME280;19522;45.656;11.302;2023-10-08T04:57:17;98938.91;;;14.87;87.63
33161;BME280;19522;45.656;11.302;2023-10-08T04:59:44;98911.03;;;14.63;87.93
33161;BME280;19522;45.656;11.302;2023-10-08T05:02:12;98936.75;;;14.69;88.26
33161;BME280;19522;45.656;11.302;2023-10-08T05:04:43;98946.03;;;14.82;88.25
33161;BME280;19522;45.656;11.302;2023-10-08T05:07:12;98940.16;;;14.85;87.72
33161;BME280;19522;45.656;11.302;2023-10-08T05:09:52;98942.06;;;14.84;87.49
33161;BME280;19522;45.656;11.302;2023-10-08T05:12:37;98936.53;;;14.71;87.21
33161;BME280;19522;45.656;11.302;2023-10-08T05:15:07;98933.38;;;14.67;87.40
33161;BME280;19522;45.656;11.302;2023-10-08T05:17:45;98895.81;;;14.47;87.23
33161;BME280;19522;45.656;11.302;2023-10-08T05:20:32;98898.81;;;14.59;85.85
33161;BME280;19522;45.656;11.302;2023-10-08T05:23:17;98929.91;;;14.93;84.00
33161;BME280;19522;45.656;11.302;2023-10-08T05:25:50;98930.91;;;14.86;84.20
33161;BME280;19522;45.656;11.302;2023-10-08T05:28:27;98946.50;;;14.92;85.41
33161;BME280;19522;45.656;11.302;2023-10-08T05:30:56;98940.41;;;14.90;85.96
33161;BME280;19522;45.656;11.302;2023-10-08T05:33:47;98947.09;;;14.87;86.61
33161;BME280;19522;45.656;11.302;2023-10-08T05:36:40;98879.13;;;14.29;87.04
33161;BME280;19522;45.656;11.302;2023-10-08T05:39:24;98893.75;;;14.49;87.03
33161;BME280;19522;45.656;11.302;2023-10-08T05:41:50;98943.78;;;14.99;86.34
33161;BME280;19522;45.656;11.302;2023-10-08T05:44:38;98944.44;;;15.01;85.64
33161;BME280;19522;45.656;11.302;2023-10-08T05:47:08;98945.28;;;15.08;85.00
33161;BME280;19522;45.656;11.302;2023-10-08T05:49:52;98935.00;;;15.10;82.11
33161;BME280;19522;45.656;11.302;2023-10-08T05:52:40;98947.38;;;15.06;82.08
33161;BME280;19522;45.656;11.302;2023-10-08T05:55:16;98909.06;;;14.92;82.72
33161;BME280;19522;45.656;11.302;2023-10-08T05:58:03;98947.06;;;15.29;83.08
33161;BME280;19522;45.656;11.302;2023-10-08T06:00:48;98928.50;;;15.18;83.61
33161;BME280;19522;45.656;11.302;2023-10-08T06:03:49;98954.88;;;15.46;83.56
33161;BME280;19522;45.656;11.302;2023-10-08T06:06:25;98964.50;;;15.35;84.21
33161;BME280;19522;45.656;11.302;2023-10-08T06:09:13;98912.91;;;15.11;83.08
33161;BME280;19522;45.656;11.302;2023-10-08T06:11:39;98873.28;;;14.87;83.81
33161;BME280;19522;45.656;11.302;2023-10-08T06:14:22;98969.38;;;15.46;84.11
33161;BME280;19522;45.656;11.302;2023-10-08T06:17:07;98973.81;;;15.54;84.05
33161;BME280;19522;45.656;11.302;2023-10-08T06:19:50;98967.50;;;15.60;84.27
33161;BME280;19522;45.656;11.302;2023-10-08T06:22:18;98975.34;;;15.70;83.92
33161;BME280;19522;45.656;11.302;2023-10-08T06:24:44;98924.78;;;15.46;83.60
33161;BME280;19522;45.656;11.302;2023-10-08T06:27:10;98925.59;;;15.46;83.14
33161;BME280;19522;45.656;11.302;2023-10-08T06:29:42;98991.75;;;15.70;84.28
33161;BME280;19522;45.656;11.302;2023-10-08T06:32:10;98950.88;;;15.48;84.36
33161;BME280;19522;45.656;11.302;2023-10-08T06:34:37;98999.81;;;15.85;83.96
33161;BME280;19522;45.656;11.302;2023-10-08T06:37:05;98967.13;;;15.70;83.56
33161;BME280;19522;45.656;11.302;2023-10-08T06:39:33;98912.16;;;15.51;83.11
33161;BME280;19522;45.656;11.302;2023-10-08T06:42:11;98953.44;;;15.77;83.11
33161;BME280;19522;45.656;11.302;2023-10-08T06:44:36;98939.75;;;15.77;83.57
33161;BME280;19522;45.656;11.302;2023-10-08T06:47:04;99013.06;;;16.22;83.44
33161;BME280;19522;45.656;11.302;2023-10-08T06:49:35;98992.00;;;16.22;83.25
33161;BME280;19522;45.656;11.302;2023-10-08T06:52:01;99006.13;;;16.39;82.91
33161;BME280;19522;45.656;11.302;2023-10-08T06:54:27;98908.81;;;15.89;82.48
33161;BME280;19522;45.656;11.302;2023-10-08T06:56:58;98847.06;;;15.60;82.65
33161;BME280;19522;45.656;11.302;2023-10-08T06:59:25;98907.13;;;15.95;82.91
33161;BME280;19522;45.656;11.302;2023-10-08T07:01:56;98930.47;;;16.25;83.57
33161;BME280;19522;45.656;11.302;2023-10-08T07:04:24;98979.53;;;16.53;83.76
33161;BME280;19522;45.656;11.302;2023-10-08T07:06:50;99009.25;;;16.63;84.34
33161;BME280;19522;45.656;11.302;2023-10-08T07:09:16;99004.38;;;16.65;84.29
33161;BME280;19522;45.656;11.302;2023-10-08T07:11:49;99001.41;;;16.66;84.55
33161;BME280;19522;45.656;11.302;2023-10-08T07:14:21;98984.16;;;16.59;84.68
33161;BME280;19522;45.656;11.302;2023-10-08T07:16:48;98997.38;;;16.76;84.74
33161;BME280;19522;45.656;11.302;2023-10-08T07:19:17;98990.22;;;16.75;84.88
33161;BME280;19522;45.656;11.302;2023-10-08T07:21:47;98984.47;;;16.90;84.63
33161;BME280;19522;45.656;11.302;2023-10-08T07:24:15;98997.50;;;17.15;83.88
33161;BME280;19522;45.656;11.302;2023-10-08T07:26:42;98970.53;;;16.98;84.45
33161;BME280;19522;45.656;11.302;2023-10-08T07:29:15;98997.03;;;17.24;84.22
33161;BME280;19522;45.656;11.302;2023-10-08T07:31:45;98926.22;;;17.01;83.18
33161;BME280;19522;45.656;11.302;2023-10-08T07:34:18;98981.78;;;17.35;83.38
33161;BME280;19522;45.656;11.302;2023-10-08T07:36:52;98993.53;;;17.49;83.33
33161;BME280;19522;45.656;11.302;2023-10-08T07:39:19;98971.06;;;17.59;82.99
33161;BME280;19522;45.656;11.302;2023-10-08T07:41:59;98988.84;;;18.14;81.51
33161;BME280;19522;45.656;11.302;2023-10-08T07:44:26;98985.03;;;18.59;79.77
33161;BME280;19522;45.656;11.302;2023-10-08T07:46:55;98961.78;;;18.98;77.93
33161;BME280;19522;45.656;11.302;2023-10-08T07:49:22;98973.03;;;19.58;76.19
33161;BME280;19522;45.656;11.302;2023-10-08T07:51:56;98978.91;;;19.92;73.42
33161;BME280;19522;45.656;11.302;2023-10-08T07:54:23;98992.47;;;20.17;71.26
33161;BME280;19522;45.656;11.302;2023-10-08T07:56:57;98917.44;;;19.91;69.18
33161;BME280;19522;45.656;11.302;2023-10-08T07:59:41;98985.56;;;20.50;68.33
33161;BME280;19522;45.656;11.302;2023-10-08T08:02:13;98990.91;;;20.93;66.88
33161;BME280;19522;45.656;11.302;2023-10-08T08:04:39;98921.00;;;20.63;65.42
33161;BME280;19522;45.656;11.302;2023-10-08T08:07:06;98972.34;;;21.17;65.20
33161;BME280;19522;45.656;11.302;2023-10-08T08:09:32;98982.69;;;21.62;63.98
33161;BME280;19522;45.656;11.302;2023-10-08T08:12:06;98984.53;;;21.91;62.24
33161;BME280;19522;45.656;11.302;2023-10-08T08:14:37;98976.50;;;22.23;58.31
33161;BME280;19522;45.656;11.302;2023-10-08T08:17:07;98940.31;;;22.25;56.67
33161;BME280;19522;45.656;11.302;2023-10-08T08:19:42;98977.56;;;22.74;56.08
33161;BME280;19522;45.656;11.302;2023-10-08T08:22:10;98932.81;;;22.60;55.22
33161;BME280;19522;45.656;11.302;2023-10-08T08:24:52;98959.09;;;23.01;55.63
33161;BME280;19522;45.656;11.302;2023-10-08T08:27:30;98989.59;;;23.24;54.11
33161;BME280;19522;45.656;11.302;2023-10-08T08:29:59;98990.25;;;23.14;54.35
33161;BME280;19522;45.656;11.302;2023-10-08T08:32:41;98991.09;;;23.14;55.25
33161;BME280;19522;45.656;11.302;2023-10-08T08:35:10;98989.09;;;23.27;55.56
33161;BME280;19522;45.656;11.302;2023-10-08T08:37:37;98996.00;;;23.52;55.01
33161;BME280;19522;45.656;11.302;2023-10-08T08:40:04;98994.50;;;23.66;54.26
33161;BME280;19522;45.656;11.302;2023-10-08T08:42:49;98991.97;;;23.92;53.57
33161;BME280;19522;45.656;11.302;2023-10-08T08:45:24;98965.75;;;23.77;50.95
33161;BME280;19522;45.656;11.302;2023-10-08T08:47:53;98989.03;;;24.04;50.49
33161;BME280;19522;45.656;11.302;2023-10-08T08:50:19;98996.28;;;24.05;49.78
33161;BME280;19522;45.656;11.302;2023-10-08T08:52:46;98989.53;;;23.95;50.19
33161;BME280;19522;45.656;11.302;2023-10-08T08:55:12;98975.66;;;23.95;50.56
33161;BME280;19522;45.656;11.302;2023-10-08T08:57:42;98988.25;;;23.81;50.10
33161;BME280;19522;45.656;11.302;2023-10-08T09:00:11;98910.56;;;23.43;51.41
33161;BME280;19522;45.656;11.302;2023-10-08T09:02:38;98992.88;;;23.98;51.69
33161;BME280;19522;45.656;11.302;2023-10-08T09:05:04;98985.94;;;23.73;51.79
33161;BME280;19522;45.656;11.302;2023-10-08T09:08:02;98997.06;;;24.00;51.92
33161;BME280;19522;45.656;11.302;2023-10-08T09:10:30;98999.31;;;24.41;53.81
33161;BME280;19522;45.656;11.302;2023-10-08T09:13:03;98945.56;;;24.57;52.13
33161;BME280;19522;45.656;11.302;2023-10-08T09:15:33;98956.78;;;24.68;49.76
33161;BME280;19522;45.656;11.302;2023-10-08T09:17:59;98993.03;;;24.94;50.04
33161;BME280;19522;45.656;11.302;2023-10-08T09:20:30;98986.44;;;25.05;50.04
33161;BME280;19522;45.656;11.302;2023-10-08T09:23:26;98991.72;;;25.12;48.62
33161;BME280;19522;45.656;11.302;2023-10-08T09:25:52;98954.38;;;24.87;49.43
33161;BME280;19522;45.656;11.302;2023-10-08T09:28:30;98978.72;;;25.28;49.77
33161;BME280;19522;45.656;11.302;2023-10-08T09:30:58;98977.41;;;25.51;49.01
33161;BME280;19522;45.656;11.302;2023-10-08T09:33:24;98956.03;;;25.57;46.92
33161;BME280;19522;45.656;11.302;2023-10-08T09:35:51;98949.66;;;25.66;48.05
33161;BME280;19522;45.656;11.302;2023-10-08T09:38:22;98964.97;;;25.79;48.19
33161;BME280;19522;45.656;11.302;2023-10-08T09:40:49;98942.16;;;25.72;49.33
33161;BME280;19522;45.656;11.302;2023-10-08T09:43:15;98959.97;;;25.92;48.73
33161;BME280;19522;45.656;11.302;2023-10-08T09:45:49;98951.66;;;26.28;48.79
33161;BME280;19522;45.656;11.302;2023-10-08T09:48:18;98954.88;;;26.77;48.16
33161;BME280;19522;45.656;11.302;2023-10-08T09:50:47;98909.19;;;26.88;46.34
33161;BME280;19522;45.656;11.302;2023-10-08T09:53:13;98839.16;;;26.39;44.63
33161;BME280;19522;45.656;11.302;2023-10-08T09:55:55;98894.94;;;26.95;44.15
33161;BME280;19522;45.656;11.302;2023-10-08T09:58:22;98940.22;;;27.26;46.36
33161;BME280;19522;45.656;11.302;2023-10-08T10:00:50;98874.69;;;26.79;44.44
33161;BME280;19522;45.656;11.302;2023-10-08T10:03:18;98876.84;;;26.97;44.89
33161;BME280;19522;45.656;11.302;2023-10-08T10:05:44;98920.63;;;27.36;45.32
33161;BME280;19522;45.656;11.302;2023-10-08T10:08:10;98933.44;;;27.43;45.50
33161;BME280;19522;45.656;11.302;2023-10-08T10:10:37;98930.56;;;27.58;44.75
33161;BME280;19522;45.656;11.302;2023-10-08T10:13:10;98925.25;;;27.62;43.83
33161;BME280;19522;45.656;11.302;2023-10-08T10:15:38;98880.03;;;27.20;44.10
33161;BME280;19522;45.656;11.302;2023-10-08T10:18:16;98935.69;;;27.46;44.86
33161;BME280;19522;45.656;11.302;2023-10-08T10:20:51;98898.31;;;27.42;45.55
33161;BME280;19522;45.656;11.302;2023-10-08T10:26:34;98944.25;;;27.55;45.20
33161;BME280;19522;45.656;11.302;2023-10-08T10:29:20;98941.00;;;27.32;46.94
33161;BME280;19522;45.656;11.302;2023-10-08T10:31:48;98919.72;;;27.01;47.46
33161;BME280;19522;45.656;11.302;2023-10-08T10:34:19;98935.84;;;27.10;48.25
33161;BME280;19522;45.656;11.302;2023-10-08T10:36:52;98913.22;;;27.21;47.22
33161;BME280;19522;45.656;11.302;2023-10-08T10:39:22;98930.66;;;27.37;47.31
33161;BME280;19522;45.656;11.302;2023-10-08T10:41:53;98935.97;;;27.34;45.62
33161;BME280;19522;45.656;11.302;2023-10-08T10:44:31;98909.47;;;27.81;46.26
33161;BME280;19522;45.656;11.302;2023-10-08T10:46:58;98927.41;;;28.05;44.43
33161;BME280;19522;45.656;11.302;2023-10-08T10:49:49;98922.66;;;28.10;44.53
33161;BME280;19522;45.656;11.302;2023-10-08T10:52:26;98884.34;;;27.81;45.26
33161;BME280;19522;45.656;11.302;2023-10-08T10:55:11;98910.09;;;27.73;45.57
33161;BME280;19522;45.656;11.302;2023-10-08T10:57:58;98882.72;;;27.46;46.56
33161;BME280;19522;45.656;11.302;2023-10-08T11:00:36;98893.75;;;27.11;46.99
33161;BME280;19522;45.656;11.302;2023-10-08T11:03:03;98900.91;;;27.28;47.11
33161;BME280;19522;45.656;11.302;2023-10-08T11:05:37;98916.69;;;27.48;47.52
33161;BME280;19522;45.656;11.302;2023-10-08T11:08:05;98903.88;;;27.42;46.77
33161;BME280;19522;45.656;11.302;2023-10-08T11:10:39;98908.69;;;27.31;46.78
33161;BME280;19522;45.656;11.302;2023-10-08T11:13:08;98878.75;;;27.47;47.86
33161;BME280;19522;45.656;11.302;2023-10-08T11:15:44;98857.06;;;27.44;46.30
33161;BME280;19522;45.656;11.302;2023-10-08T11:18:16;98905.31;;;27.39;46.56
33161;BME280;19522;45.656;11.302;2023-10-08T11:20:43;98895.31;;;27.28;47.17
33161;BME280;19522;45.656;11.302;2023-10-08T11:26:01;98801.63;;;26.92;47.60
33161;BME280;19522;45.656;11.302;2023-10-08T11:28:36;98832.88;;;27.29;46.96
33161;BME280;19522;45.656;11.302;2023-10-08T11:31:08;98885.22;;;27.82;46.32
33161;BME280;19522;45.656;11.302;2023-10-08T11:33:40;98842.31;;;27.73;46.37
33161;BME280;19522;45.656;11.302;2023-10-08T11:36:07;98883.00;;;28.13;45.47
33161;BME280;19522;45.656;11.302;2023-10-08T11:38:46;98885.13;;;28.51;45.39
33161;BME280;19522;45.656;11.302;2023-10-08T11:41:17;98877.25;;;28.53;44.86
33161;BME280;19522;45.656;11.302;2023-10-08T11:43:52;98877.84;;;28.26;44.15
33161;BME280;19522;45.656;11.302;2023-10-08T11:46:30;98871.41;;;28.25;44.29
33161;BME280;19522;45.656;11.302;2023-10-08T11:49:06;98853.88;;;28.20;44.86
33161;BME280;19522;45.656;11.302;2023-10-08T11:51:34;98862.03;;;28.65;44.40
33161;BME280;19522;45.656;11.302;2023-10-08T11:54:06;98878.34;;;28.82;43.33
33161;BME280;19522;45.656;11.302;2023-10-08T11:56:32;98839.44;;;28.42;44.73
33161;BME280;19522;45.656;11.302;2023-10-08T11:59:01;98865.03;;;28.49;43.55
33161;BME280;19522;45.656;11.302;2023-10-08T12:01:27;98859.91;;;28.32;44.31
33161;BME280;19522;45.656;11.302;2023-10-08T12:04:04;98843.47;;;28.30;44.61
33161;BME280;19522;45.656;11.302;2023-10-08T12:06:30;98793.44;;;28.05;44.12
33161;BME280;19522;45.656;11.302;2023-10-08T12:08:56;98863.34;;;28.97;42.78
33161;BME280;19522;45.656;11.302;2023-10-08T12:11:25;98847.75;;;28.90;43.18
33161;BME280;19522;45.656;11.302;2023-10-08T12:13:57;98864.94;;;29.03;42.27
33161;BME280;19522;45.656;11.302;2023-10-08T12:16:24;98809.03;;;28.59;43.00
33161;BME280;19522;45.656;11.302;2023-10-08T12:18:51;98826.97;;;28.77;42.83
33161;BME280;19522;45.656;11.302;2023-10-08T12:21:25;98856.31;;;28.99;43.26
33161;BME280;19522;45.656;11.302;2023-10-08T12:23:50;98851.34;;;29.34;42.83
33161;BME280;19522;45.656;11.302;2023-10-08T12:26:17;98838.44;;;29.58;42.65
33161;BME280;19522;45.656;11.302;2023-10-08T12:28:47;98838.31;;;29.63;41.27
33161;BME280;19522;45.656;11.302;2023-10-08T12:31:18;98763.00;;;29.14;41.15
33161;BME280;19522;45.656;11.302;2023-10-08T12:33:50;98850.47;;;29.72;41.13
33161;BME280;19522;45.656;11.302;2023-10-08T12:36:28;98849.91;;;29.89;40.74
33161;BME280;19522;45.656;11.302;2023-10-08T12:38:58;98840.34;;;29.76;41.28
33161;BME280;19522;45.656;11.302;2023-10-08T12:41:27;98848.22;;;29.74;41.69
33161;BME280;19522;45.656;11.302;2023-10-08T12:43:52;98847.47;;;29.49;41.92
33161;BME280;19522;45.656;11.302;2023-10-08T12:46:19;98840.47;;;29.85;41.50
33161;BME280;19522;45.656;11.302;2023-10-08T12:48:49;98843.06;;;30.42;39.60
33161;BME280;19522;45.656;11.302;2023-10-08T12:51:19;98841.81;;;30.35;39.66
33161;BME280;19522;45.656;11.302;2023-10-08T12:53:52;98842.56;;;30.54;39.85
33161;BME280;19522;45.656;11.302;2023-10-08T12:56:28;98837.53;;;30.23;40.55
33161;BME280;19522;45.656;11.302;2023-10-08T12:58:58;98788.81;;;30.24;40.26
33161;BME280;19522;45.656;11.302;2023-10-08T13:01:24;98823.97;;;30.44;39.83
33161;BME280;19522;45.656;11.302;2023-10-08T13:03:54;98833.31;;;30.82;39.54
33161;BME280;19522;45.656;11.302;2023-10-08T13:06:25;98827.94;;;30.71;40.07
33161;BME280;19522;45.656;11.302;2023-10-08T13:08:57;98815.16;;;30.37;40.38
33161;BME280;19522;45.656;11.302;2023-10-08T13:11:25;98833.41;;;30.90;39.46
33161;BME280;19522;45.656;11.302;2023-10-08T13:13:53;98765.13;;;30.44;39.52
33161;BME280;19522;45.656;11.302;2023-10-08T13:16:19;98821.47;;;30.85;40.14
33161;BME280;19522;45.656;11.302;2023-10-08T13:18:47;98800.00;;;30.66;39.52
33161;BME280;19522;45.656;11.302;2023-10-08T13:21:13;98819.09;;;30.78;39.98